sensor_id;sensor_type;location;lat;lon;timestamp;P1;durP1;ratioP1;P2;durP2;ratioP2
48526;SDS011;34317;51.660;5.824;2024-03-02T00:00:21;3.67;;;1.00;;
48526;SDS011;34317;51.660;5.824;2024-03-02T00:02:52;3.17;;;2.40;;
48526;SDS011;34317;51.660;5.824;2024-03-02T00:05:21;2.67;;;1.25;;
48526;SDS011;34317;51.660;5.824;2024-03-02T00:12:11;2.00;;;1.30;;
48526;SDS011;34317;51.660;5.824;2024-03-02T00:14:43;1.90;;;1.25;;
48526;SDS011;34317;51.660;5.824;2024-03-02T00:17:14;2.40;;;1.08;;
48526;SDS011;34317;51.660;5.824;2024-03-02T00:19:51;2.00;;;1.20;;
48526;SDS011;34317;51.660;5.824;2024-03-02T00:22:19;3.33;;;1.52;;
48526;SDS011;34317;51.660;5.824;2024-03-02T00:24:46;4.57;;;1.50;;
48526;SDS011;34317;51.660;5.824;2024-03-02T00:27:14;2.85;;;1.23;;
48526;SDS011;34317;51.660;5.824;2024-03-02T00:29:44;7.38;;;1.48;;
48526;SDS011;34317;51.660;5.824;2024-03-02T00:32:12;2.95;;;1.30;;
48526;SDS011;34317;51.660;5.824;2024-03-02T00:34:41;2.72;;;1.20;;
48526;SDS011;34317;51.660;5.824;2024-03-02T00:37:08;2.67;;;1.30;;
48526;SDS011;34317;51.660;5.824;2024-03-02T00:39:36;2.38;;;1.17;;
48526;SDS011;34317;51.660;5.824;2024-03-02T00:42:04;2.58;;;1.27;;
48526;SDS011;34317;51.660;5.824;2024-03-02T00:44:32;4.07;;;1.55;;
48526;SDS011;34317;51.660;5.824;2024-03-02T00:47:02;3.35;;;1.33;;
48526;SDS011;34317;51.660;5.824;2024-03-02T00:49:30;2.55;;;1.40;;
48526;SDS011;34317;51.660;5.824;2024-03-02T00:51:57;2.45;;;1.20;;
48526;SDS011;34317;51.660;5.824;2024-03-02T00:54:26;2.05;;;1.27;;
48526;SDS011;34317;51.660;5.824;2024-03-02T00:56:54;2.25;;;1.30;;
48526;SDS011;34317;51.660;5.824;2024-03-02T00:59:24;3.20;;;1.30;;
48526;SDS011;34317;51.660;5.824;2024-03-02T01:01:51;2.72;;;1.40;;
48526;SDS011;34317;51.660;5.824;2024-03-02T01:04:19;1.80;;;1.17;;
48526;SDS011;34317;51.660;5.824;2024-03-02T01:06:46;2.67;;;0.75;;
48526;SDS011;34317;51.660;5.824;2024-03-02T01:09:15;0.93;;;0.60;;
48526;SDS011;34317;51.660;5.824;2024-03-02T01:11:43;1.00;;;0.90;;
48526;SDS011;34317;51.660;5.824;2024-03-02T01:14:11;2.15;;;1.00;;
48526;SDS011;34317;51.660;5.824;2024-03-02T01:16:38;0.70;;;0.70;;
48526;SDS011;34317;51.660;5.824;2024-03-02T01:19:05;1.00;;;0.70;;
48526;SDS011;34317;51.660;5.824;2024-03-02T01:21:33;0.90;;;0.80;;
48526;SDS011;34317;51.660;5.824;2024-03-02T01:24:00;1.25;;;0.70;;
48526;SDS011;34317;51.660;5.824;2024-03-02T01:26:28;1.20;;;0.85;;
48526;SDS011;34317;51.660;5.824;2024-03-02T01:28:55;0.68;;;0.68;;
48526;SDS011;34317;51.660;5.824;2024-03-02T01:31:23;0.90;;;0.70;;
48526;SDS011;34317;51.660;5.824;2024-03-02T01:33:50;0.88;;;0.65;;
48526;SDS011;34317;51.660;5.824;2024-03-02T01:36:18;2.25;;;0.70;;
48526;SDS011;34317;51.660;5.824;2024-03-02T01:38:45;0.85;;;0.85;;
48526;SDS011;34317;51.660;5.824;2024-03-02T01:41:12;1.92;;;0.70;;
48526;SDS011;34317;51.660;5.824;2024-03-02T01:43:40;1.00;;;0.70;;
48526;SDS011;34317;51.660;5.824;2024-03-02T01:46:08;0.70;;;0.70;;
48526;SDS011;34317;51.660;5.824;2024-03-02T01:48:36;1.13;;;0.80;;
48526;SDS011;34317;51.660;5.824;2024-03-02T01:51:03;0.70;;;0.63;;
48526;SDS011;34317;51.660;5.824;2024-03-02T01:53:36;0.95;;;0.65;;
48526;SDS011;34317;51.660;5.824;2024-03-02T01:56:04;0.85;;;0.85;;
48526;SDS011;34317;51.660;5.824;2024-03-02T01:58:32;1.00;;;0.52;;
48526;SDS011;34317;51.660;5.824;2024-03-02T02:00:59;1.15;;;0.73;;
48526;SDS011;34317;51.660;5.824;2024-03-02T02:03:27;0.77;;;0.70;;
48526;SDS011;34317;51.660;5.824;2024-03-02T02:05:54;1.52;;;0.70;;
48526;SDS011;34317;51.660;5.824;2024-03-02T02:08:21;1.20;;;0.90;;
48526;SDS011;34317;51.660;5.824;2024-03-02T02:10:49;0.90;;;0.60;;
48526;SDS011;34317;51.660;5.824;2024-03-02T02:13:16;1.95;;;0.80;;
48526;SDS011;34317;51.660;5.824;2024-03-02T02:15:43;1.15;;;0.75;;
48526;SDS011;34317;51.660;5.824;2024-03-02T02:18:11;0.70;;;0.70;;
48526;SDS011;34317;51.660;5.824;2024-03-02T02:20:38;0.63;;;0.63;;
48526;SDS011;34317;51.660;5.824;2024-03-02T02:23:06;0.85;;;0.60;;
48526;SDS011;34317;51.660;5.824;2024-03-02T02:25:37;0.90;;;0.75;;
48526;SDS011;34317;51.660;5.824;2024-03-02T02:28:05;0.70;;;0.68;;
48526;SDS011;34317;51.660;5.824;2024-03-02T02:30:33;1.23;;;0.40;;
48526;SDS011;34317;51.660;5.824;2024-03-02T02:33:01;2.85;;;0.70;;
48526;SDS011;34317;51.660;5.824;2024-03-02T02:35:30;2.13;;;0.88;;
48526;SDS011;34317;51.660;5.824;2024-03-02T02:37:57;1.73;;;0.80;;
48526;SDS011;34317;51.660;5.824;2024-03-02T02:40:58;0.80;;;0.40;;
48526;SDS011;34317;51.660;5.824;2024-03-02T02:43:25;0.40;;;0.40;;
48526;SDS011;34317;51.660;5.824;2024-03-02T02:45:54;0.32;;;0.32;;
48526;SDS011;34317;51.660;5.824;2024-03-02T02:48:21;0.75;;;0.40;;
48526;SDS011;34317;51.660;5.824;2024-03-02T02:50:48;1.15;;;0.52;;
48526;SDS011;34317;51.660;5.824;2024-03-02T02:53:24;2.83;;;0.50;;
48526;SDS011;34317;51.660;5.824;2024-03-02T02:58:19;0.85;;;0.50;;
48526;SDS011;34317;51.660;5.824;2024-03-02T03:00:47;0.35;;;0.30;;
48526;SDS011;34317;51.660;5.824;2024-03-02T03:03:16;1.98;;;0.40;;
48526;SDS011;34317;51.660;5.824;2024-03-02T03:05:43;0.57;;;0.40;;
48526;SDS011;34317;51.660;5.824;2024-03-02T03:08:16;0.30;;;0.30;;
48526;SDS011;34317;51.660;5.824;2024-03-02T03:10:44;1.00;;;0.50;;
48526;SDS011;34317;51.660;5.824;2024-03-02T03:13:11;1.00;;;0.40;;
48526;SDS011;34317;51.660;5.824;2024-03-02T03:15:40;1.38;;;0.30;;
48526;SDS011;34317;51.660;5.824;2024-03-02T03:18:08;1.30;;;0.38;;
48526;SDS011;34317;51.660;5.824;2024-03-02T03:20:50;0.70;;;0.40;;
48526;SDS011;34317;51.660;5.824;2024-03-02T03:23:17;0.82;;;0.40;;
48526;SDS011;34317;51.660;5.824;2024-03-02T03:25:44;2.13;;;0.40;;
48526;SDS011;34317;51.660;5.824;2024-03-02T03:28:11;1.40;;;0.40;;
48526;SDS011;34317;51.660;5.824;2024-03-02T03:30:39;1.17;;;0.40;;
48526;SDS011;34317;51.660;5.824;2024-03-02T03:33:06;0.32;;;0.30;;
48526;SDS011;34317;51.660;5.824;2024-03-02T03:35:34;0.55;;;0.50;;
48526;SDS011;34317;51.660;5.824;2024-03-02T03:38:01;1.80;;;0.40;;
48526;SDS011;34317;51.660;5.824;2024-03-02T03:40:29;1.17;;;0.50;;
48526;SDS011;34317;51.660;5.824;2024-03-02T03:42:56;0.47;;;0.40;;
48526;SDS011;34317;51.660;5.824;2024-03-02T03:45:24;0.50;;;0.40;;
48526;SDS011;34317;51.660;5.824;2024-03-02T03:47:53;1.50;;;0.50;;
48526;SDS011;34317;51.660;5.824;2024-03-02T03:50:23;1.20;;;0.40;;
48526;SDS011;34317;51.660;5.824;2024-03-02T03:52:51;0.65;;;0.40;;
48526;SDS011;34317;51.660;5.824;2024-03-02T03:55:18;1.00;;;0.50;;
48526;SDS011;34317;51.660;5.824;2024-03-02T03:57:46;1.27;;;0.43;;
48526;SDS011;34317;51.660;5.824;2024-03-02T04:00:14;1.58;;;0.60;;
48526;SDS011;34317;51.660;5.824;2024-03-02T04:02:42;0.70;;;0.50;;
48526;SDS011;34317;51.660;5.824;2024-03-02T04:05:09;0.63;;;0.40;;
48526;SDS011;34317;51.660;5.824;2024-03-02T04:07:38;2.30;;;0.47;;
48526;SDS011;34317;51.660;5.824;2024-03-02T04:10:08;1.20;;;0.60;;
48526;SDS011;34317;51.660;5.824;2024-03-02T04:12:39;1.23;;;0.50;;
48526;SDS011;34317;51.660;5.824;2024-03-02T04:15:07;0.98;;;0.43;;
48526;SDS011;34317;51.660;5.824;2024-03-02T04:17:35;0.65;;;0.45;;
48526;SDS011;34317;51.660;5.824;2024-03-02T04:20:03;1.23;;;0.40;;
48526;SDS011;34317;51.660;5.824;2024-03-02T04:22:35;0.88;;;0.50;;
48526;SDS011;34317;51.660;5.824;2024-03-02T04:25:03;0.95;;;0.40;;
48526;SDS011;34317;51.660;5.824;2024-03-02T04:27:31;1.08;;;0.32;;
48526;SDS011;34317;51.660;5.824;2024-03-02T04:30:00;0.65;;;0.40;;
48526;SDS011;34317;51.660;5.824;2024-03-02T04:32:28;0.75;;;0.40;;
48526;SDS011;34317;51.660;5.824;2024-03-02T04:34:55;0.85;;;0.47;;
48526;SDS011;34317;51.660;5.824;2024-03-02T04:37:22;0.40;;;0.30;;
48526;SDS011;34317;51.660;5.824;2024-03-02T04:39:50;0.80;;;0.40;;
48526;SDS011;34317;51.660;5.824;2024-03-02T04:42:17;0.43;;;0.40;;
48526;SDS011;34317;51.660;5.824;2024-03-02T04:44:45;0.82;;;0.47;;
48526;SDS011;34317;51.660;5.824;2024-03-02T04:47:12;1.48;;;0.50;;
48526;SDS011;34317;51.660;5.824;2024-03-02T04:49:39;1.63;;;0.50;;
48526;SDS011;34317;51.660;5.824;2024-03-02T04:52:07;1.98;;;0.47;;
48526;SDS011;34317;51.660;5.824;2024-03-02T04:54:35;1.08;;;0.40;;
48526;SDS011;34317;51.660;5.824;2024-03-02T04:57:26;1.15;;;0.50;;
48526;SDS011;34317;51.660;5.824;2024-03-02T04:59:53;1.42;;;0.40;;
48526;SDS011;34317;51.660;5.824;2024-03-02T05:02:24;1.25;;;0.50;;
48526;SDS011;34317;51.660;5.824;2024-03-02T05:04:51;1.05;;;0.52;;
48526;SDS011;34317;51.660;5.824;2024-03-02T05:07:18;1.40;;;0.45;;
48526;SDS011;34317;51.660;5.824;2024-03-02T05:09:46;1.45;;;0.47;;
48526;SDS011;34317;51.660;5.824;2024-03-02T05:12:15;2.20;;;0.55;;
48526;SDS011;34317;51.660;5.824;2024-03-02T05:15:02;0.80;;;0.47;;
48526;SDS011;34317;51.660;5.824;2024-03-02T05:17:32;0.85;;;0.40;;
48526;SDS011;34317;51.660;5.824;2024-03-02T05:19:59;0.85;;;0.45;;
48526;SDS011;34317;51.660;5.824;2024-03-02T05:22:30;1.67;;;0.50;;
48526;SDS011;34317;51.660;5.824;2024-03-02T05:24:57;0.45;;;0.35;;
48526;SDS011;34317;51.660;5.824;2024-03-02T05:27:27;1.50;;;0.50;;
48526;SDS011;34317;51.660;5.824;2024-03-02T05:29:54;1.23;;;0.38;;
48526;SDS011;34317;51.660;5.824;2024-03-02T05:32:21;1.55;;;0.60;;
48526;SDS011;34317;51.660;5.824;2024-03-02T05:34:49;0.47;;;0.40;;
48526;SDS011;34317;51.660;5.824;2024-03-02T05:37:17;0.45;;;0.40;;
48526;SDS011;34317;51.660;5.824;2024-03-02T05:39:45;1.15;;;0.47;;
48526;SDS011;34317;51.660;5.824;2024-03-02T05:42:17;0.93;;;0.50;;
48526;SDS011;34317;51.660;5.824;2024-03-02T05:44:44;0.60;;;0.40;;
48526;SDS011;34317;51.660;5.824;2024-03-02T05:47:11;1.15;;;0.50;;
48526;SDS011;34317;51.660;5.824;2024-03-02T05:49:47;0.98;;;0.50;;
48526;SDS011;34317;51.660;5.824;2024-03-02T05:52:14;1.05;;;0.32;;
48526;SDS011;34317;51.660;5.824;2024-03-02T05:54:41;0.65;;;0.40;;
48526;SDS011;34317;51.660;5.824;2024-03-02T05:57:10;0.88;;;0.43;;
48526;SDS011;34317;51.660;5.824;2024-03-02T05:59:56;0.85;;;0.50;;
48526;SDS011;34317;51.660;5.824;2024-03-02T06:02:23;1.63;;;0.50;;
48526;SDS011;34317;51.660;5.824;2024-03-02T06:04:53;0.82;;;0.45;;
48526;SDS011;34317;51.660;5.824;2024-03-02T06:07:21;0.80;;;0.52;;
48526;SDS011;34317;51.660;5.824;2024-03-02T06:09:49;0.90;;;0.60;;
48526;SDS011;34317;51.660;5.824;2024-03-02T06:12:21;1.20;;;0.50;;
48526;SDS011;34317;51.660;5.824;2024-03-02T06:14:49;1.60;;;0.50;;
48526;SDS011;34317;51.660;5.824;2024-03-02T06:17:16;1.77;;;0.45;;
48526;SDS011;34317;51.660;5.824;2024-03-02T06:19:48;1.92;;;0.50;;
48526;SDS011;34317;51.660;5.824;2024-03-02T06:22:16;0.68;;;0.30;;
48526;SDS011;34317;51.660;5.824;2024-03-02T06:24:43;1.27;;;0.40;;
48526;SDS011;34317;51.660;5.824;2024-03-02T06:27:10;1.67;;;0.57;;
48526;SDS011;34317;51.660;5.824;2024-03-02T06:29:39;0.70;;;0.50;;
48526;SDS011;34317;51.660;5.824;2024-03-02T06:32:06;0.60;;;0.60;;
48526;SDS011;34317;51.660;5.824;2024-03-02T06:37:27;1.48;;;0.50;;
48526;SDS011;34317;51.660;5.824;2024-03-02T06:39:54;2.20;;;0.40;;
48526;SDS011;34317;51.660;5.824;2024-03-02T06:42:27;2.20;;;0.80;;
48526;SDS011;34317;51.660;5.824;2024-03-02T06:45:00;1.85;;;0.60;;
48526;SDS011;34317;51.660;5.824;2024-03-02T06:47:28;1.13;;;0.40;;
48526;SDS011;34317;51.660;5.824;2024-03-02T06:49:55;2.40;;;0.50;;
48526;SDS011;34317;51.660;5.824;2024-03-02T06:52:24;2.05;;;0.70;;
48526;SDS011;34317;51.660;5.824;2024-03-02T06:54:51;0.90;;;0.52;;
48526;SDS011;34317;51.660;5.824;2024-03-02T06:59:51;1.17;;;0.40;;
48526;SDS011;34317;51.660;5.824;2024-03-02T07:02:24;0.82;;;0.45;;
48526;SDS011;34317;51.660;5.824;2024-03-02T07:04:53;0.80;;;0.30;;
48526;SDS011;34317;51.660;5.824;2024-03-02T07:07:21;1.40;;;0.50;;
48526;SDS011;34317;51.660;5.824;2024-03-02T07:09:49;1.77;;;0.70;;
48526;SDS011;34317;51.660;5.824;2024-03-02T07:12:16;1.30;;;0.45;;
48526;SDS011;34317;51.660;5.824;2024-03-02T07:14:43;0.45;;;0.40;;
48526;SDS011;34317;51.660;5.824;2024-03-02T07:17:30;0.80;;;0.50;;
48526;SDS011;34317;51.660;5.824;2024-03-02T07:19:58;0.75;;;0.50;;
48526;SDS011;34317;51.660;5.824;2024-03-02T07:22:26;2.33;;;0.57;;
48526;SDS011;34317;51.660;5.824;2024-03-02T07:24:53;0.88;;;0.50;;
48526;SDS011;34317;51.660;5.824;2024-03-02T07:27:21;0.50;;;0.40;;
48526;SDS011;34317;51.660;5.824;2024-03-02T07:29:50;1.42;;;0.63;;
48526;SDS011;34317;51.660;5.824;2024-03-02T07:32:18;1.83;;;0.40;;
48526;SDS011;34317;51.660;5.824;2024-03-02T07:34:46;0.88;;;0.50;;
48526;SDS011;34317;51.660;5.824;2024-03-02T07:37:13;0.77;;;0.50;;
48526;SDS011;34317;51.660;5.824;2024-03-02T07:39:42;0.90;;;0.50;;
48526;SDS011;34317;51.660;5.824;2024-03-02T07:42:14;1.48;;;0.50;;
48526;SDS011;34317;51.660;5.824;2024-03-02T07:44:43;1.40;;;0.50;;
48526;SDS011;34317;51.660;5.824;2024-03-02T07:47:12;3.60;;;0.40;;
48526;SDS011;34317;51.660;5.824;2024-03-02T07:49:39;1.05;;;0.60;;
48526;SDS011;34317;51.660;5.824;2024-03-02T07:52:07;3.13;;;0.60;;
48526;SDS011;34317;51.660;5.824;2024-03-02T07:54:35;1.52;;;0.50;;
48526;SDS011;34317;51.660;5.824;2024-03-02T07:57:04;3.33;;;0.60;;
48526;SDS011;34317;51.660;5.824;2024-03-02T07:59:31;2.53;;;0.63;;
48526;SDS011;34317;51.660;5.824;2024-03-02T08:01:59;0.85;;;0.40;;
48526;SDS011;34317;51.660;5.824;2024-03-02T08:04:27;1.45;;;0.55;;
48526;SDS011;34317;51.660;5.824;2024-03-02T08:06:55;1.85;;;0.47;;
48526;SDS011;34317;51.660;5.824;2024-03-02T08:09:22;4.38;;;0.52;;
48526;SDS011;34317;51.660;5.824;2024-03-02T08:11:52;1.95;;;0.38;;
48526;SDS011;34317;51.660;5.824;2024-03-02T08:14:19;1.70;;;0.50;;
48526;SDS011;34317;51.660;5.824;2024-03-02T08:16:48;1.27;;;0.47;;
48526;SDS011;34317;51.660;5.824;2024-03-02T08:19:16;1.83;;;0.50;;
48526;SDS011;34317;51.660;5.824;2024-03-02T08:21:43;1.70;;;0.85;;
48526;SDS011;34317;51.660;5.824;2024-03-02T08:24:11;3.97;;;0.70;;
48526;SDS011;34317;51.660;5.824;2024-03-02T08:26:39;1.20;;;0.50;;
48526;SDS011;34317;51.660;5.824;2024-03-02T08:29:06;2.75;;;0.70;;
48526;SDS011;34317;51.660;5.824;2024-03-02T08:31:33;2.70;;;0.70;;
48526;SDS011;34317;51.660;5.824;2024-03-02T08:34:04;2.72;;;0.60;;
48526;SDS011;34317;51.660;5.824;2024-03-02T08:36:31;1.58;;;0.50;;
48526;SDS011;34317;51.660;5.824;2024-03-02T08:38:58;1.38;;;0.50;;
48526;SDS011;34317;51.660;5.824;2024-03-02T08:41:27;4.13;;;0.70;;
48526;SDS011;34317;51.660;5.824;2024-03-02T08:43:54;0.88;;;0.52;;
48526;SDS011;34317;51.660;5.824;2024-03-02T08:46:23;2.25;;;0.60;;
48526;SDS011;34317;51.660;5.824;2024-03-02T08:48:50;2.78;;;0.93;;
48526;SDS011;34317;51.660;5.824;2024-03-02T08:51:19;2.80;;;0.70;;
48526;SDS011;34317;51.660;5.824;2024-03-02T08:53:46;4.10;;;0.85;;
48526;SDS011;34317;51.660;5.824;2024-03-02T08:56:13;1.48;;;0.70;;
48526;SDS011;34317;51.660;5.824;2024-03-02T08:58:43;6.07;;;0.85;;
48526;SDS011;34317;51.660;5.824;2024-03-02T09:01:11;1.65;;;0.52;;
48526;SDS011;34317;51.660;5.824;2024-03-02T09:03:38;2.42;;;0.70;;
48526;SDS011;34317;51.660;5.824;2024-03-02T09:06:06;2.63;;;0.63;;
48526;SDS011;34317;51.660;5.824;2024-03-02T09:08:33;2.88;;;0.77;;
48526;SDS011;34317;51.660;5.824;2024-03-02T09:11:03;3.97;;;0.77;;
48526;SDS011;34317;51.660;5.824;2024-03-02T09:13:33;2.50;;;0.68;;
48526;SDS011;34317;51.660;5.824;2024-03-02T09:16:01;1.77;;;0.50;;
48526;SDS011;34317;51.660;5.824;2024-03-02T09:18:28;2.05;;;0.65;;
48526;SDS011;34317;51.660;5.824;2024-03-02T09:20:56;2.50;;;0.50;;
48526;SDS011;34317;51.660;5.824;2024-03-02T09:23:24;1.48;;;0.60;;
48526;SDS011;34317;51.660;5.824;2024-03-02T09:25:51;3.28;;;0.60;;
48526;SDS011;34317;51.660;5.824;2024-03-02T09:28:20;3.78;;;0.73;;
48526;SDS011;34317;51.660;5.824;2024-03-02T09:30:47;1.30;;;0.60;;
48526;SDS011;34317;51.660;5.824;2024-03-02T09:33:16;3.90;;;0.80;;
48526;SDS011;34317;51.660;5.824;2024-03-02T09:35:44;2.35;;;0.60;;
48526;SDS011;34317;51.660;5.824;2024-03-02T09:38:11;1.25;;;0.70;;
48526;SDS011;34317;51.660;5.824;2024-03-02T09:40:38;3.72;;;0.60;;
48526;SDS011;34317;51.660;5.824;2024-03-02T09:43:07;1.50;;;0.60;;
48526;SDS011;34317;51.660;5.824;2024-03-02T09:45:34;1.02;;;0.50;;
48526;SDS011;34317;51.660;5.824;2024-03-02T09:48:02;3.55;;;0.70;;
48526;SDS011;34317;51.660;5.824;2024-03-02T09:50:29;4.28;;;0.80;;
48526;SDS011;34317;51.660;5.824;2024-03-02T09:52:57;2.38;;;0.73;;
48526;SDS011;34317;51.660;5.824;2024-03-02T09:55:26;2.42;;;0.80;;
48526;SDS011;34317;51.660;5.824;2024-03-02T09:57:54;2.10;;;0.60;;
48526;SDS011;34317;51.660;5.824;2024-03-02T10:02:55;2.72;;;0.77;;
48526;SDS011;34317;51.660;5.824;2024-03-02T10:05:25;3.53;;;1.00;;
48526;SDS011;34317;51.660;5.824;2024-03-02T10:08:02;2.53;;;0.80;;
48526;SDS011;34317;51.660;5.824;2024-03-02T10:10:38;2.40;;;0.80;;
48526;SDS011;34317;51.660;5.824;2024-03-02T10:13:09;1.35;;;0.60;;
48526;SDS011;34317;51.660;5.824;2024-03-02T10:15:38;0.70;;;0.50;;
48526;SDS011;34317;51.660;5.824;2024-03-02T10:18:08;2.40;;;0.65;;
48526;SDS011;34317;51.660;5.824;2024-03-02T10:20:40;2.38;;;0.60;;
48526;SDS011;34317;51.660;5.824;2024-03-02T10:25:39;1.08;;;0.52;;
48526;SDS011;34317;51.660;5.824;2024-03-02T10:28:20;1.55;;;0.55;;
48526;SDS011;34317;51.660;5.824;2024-03-02T10:30:49;2.55;;;0.60;;
48526;SDS011;34317;51.660;5.824;2024-03-02T10:33:18;1.67;;;0.63;;
48526;SDS011;34317;51.660;5.824;2024-03-02T10:35:47;2.40;;;0.60;;
48526;SDS011;34317;51.660;5.824;2024-03-02T10:38:17;2.13;;;0.52;;
48526;SDS011;34317;51.660;5.824;2024-03-02T10:40:48;1.20;;;0.60;;
48526;SDS011;34317;51.660;5.824;2024-03-02T10:43:16;3.70;;;0.70;;
48526;SDS011;34317;51.660;5.824;2024-03-02T10:45:45;1.50;;;0.50;;
48526;SDS011;34317;51.660;5.824;2024-03-02T10:48:16;1.55;;;0.60;;
48526;SDS011;34317;51.660;5.824;2024-03-02T10:50:43;6.13;;;0.93;;
48526;SDS011;34317;51.660;5.824;2024-03-02T10:53:10;1.70;;;0.63;;
48526;SDS011;34317;51.660;5.824;2024-03-02T10:55:38;1.77;;;0.77;;
48526;SDS011;34317;51.660;5.824;2024-03-02T10:58:06;1.30;;;0.70;;
48526;SDS011;34317;51.660;5.824;2024-03-02T11:00:35;2.72;;;0.60;;
48526;SDS011;34317;51.660;5.824;2024-03-02T11:03:07;1.60;;;0.60;;
48526;SDS011;34317;51.660;5.824;2024-03-02T11:05:39;5.50;;;0.75;;
48526;SDS011;34317;51.660;5.824;2024-03-02T11:08:13;1.38;;;0.68;;
48526;SDS011;34317;51.660;5.824;2024-03-02T11:10:58;1.60;;;0.55;;
48526;SDS011;34317;51.660;5.824;2024-03-02T11:13:34;3.10;;;0.70;;
48526;SDS011;34317;51.660;5.824;2024-03-02T11:16:05;1.95;;;0.60;;
48526;SDS011;34317;51.660;5.824;2024-03-02T11:18:39;2.57;;;0.67;;
48526;SDS011;34317;51.660;5.824;2024-03-02T11:21:09;2.97;;;0.63;;
48526;SDS011;34317;51.660;5.824;2024-03-02T11:23:36;1.77;;;0.73;;
48526;SDS011;34317;51.660;5.824;2024-03-02T11:26:19;1.60;;;0.73;;
48526;SDS011;34317;51.660;5.824;2024-03-02T11:28:47;1.88;;;0.60;;
48526;SDS011;34317;51.660;5.824;2024-03-02T11:31:15;2.45;;;0.90;;
48526;SDS011;34317;51.660;5.824;2024-03-02T11:33:42;3.00;;;0.80;;
48526;SDS011;34317;51.660;5.824;2024-03-02T11:36:10;1.83;;;0.60;;
48526;SDS011;34317;51.660;5.824;2024-03-02T11:38:38;5.13;;;0.70;;
48526;SDS011;34317;51.660;5.824;2024-03-02T11:41:11;3.42;;;0.80;;
48526;SDS011;34317;51.660;5.824;2024-03-02T11:43:39;1.33;;;0.70;;
48526;SDS011;34317;51.660;5.824;2024-03-02T11:46:07;2.83;;;0.60;;
48526;SDS011;34317;51.660;5.824;2024-03-02T11:48:36;0.77;;;0.50;;
48526;SDS011;34317;51.660;5.824;2024-03-02T11:51:06;1.85;;;0.70;;
48526;SDS011;34317;51.660;5.824;2024-03-02T11:53:33;1.20;;;0.70;;
48526;SDS011;34317;51.660;5.824;2024-03-02T11:56:02;2.38;;;0.70;;
48526;SDS011;34317;51.660;5.824;2024-03-02T11:58:34;1.88;;;0.60;;
48526;SDS011;34317;51.660;5.824;2024-03-02T12:01:03;1.98;;;0.65;;
48526;SDS011;34317;51.660;5.824;2024-03-02T12:03:33;0.93;;;0.60;;
48526;SDS011;34317;51.660;5.824;2024-03-02T12:06:02;3.17;;;0.73;;
48526;SDS011;34317;51.660;5.824;2024-03-02T12:08:30;2.22;;;0.80;;
48526;SDS011;34317;51.660;5.824;2024-03-02T12:10:59;3.17;;;0.80;;
48526;SDS011;34317;51.660;5.824;2024-03-02T12:13:30;1.85;;;0.80;;
48526;SDS011;34317;51.660;5.824;2024-03-02T12:15:57;2.55;;;0.90;;
48526;SDS011;34317;51.660;5.824;2024-03-02T12:18:25;3.70;;;0.80;;
48526;SDS011;34317;51.660;5.824;2024-03-02T12:20:53;1.83;;;0.70;;
48526;SDS011;34317;51.660;5.824;2024-03-02T12:23:25;2.30;;;0.70;;
48526;SDS011;34317;51.660;5.824;2024-03-02T12:25:52;1.33;;;0.70;;
48526;SDS011;34317;51.660;5.824;2024-03-02T12:28:22;3.22;;;0.80;;
48526;SDS011;34317;51.660;5.824;2024-03-02T12:30:50;2.50;;;0.90;;
48526;SDS011;34317;51.660;5.824;2024-03-02T12:33:17;3.85;;;0.90;;
48526;SDS011;34317;51.660;5.824;2024-03-02T12:35:45;2.75;;;1.00;;
48526;SDS011;34317;51.660;5.824;2024-03-02T12:38:13;1.60;;;0.60;;
48526;SDS011;34317;51.660;5.824;2024-03-02T12:40:41;1.75;;;0.70;;
48526;SDS011;34317;51.660;5.824;2024-03-02T12:43:08;3.83;;;0.70;;
48526;SDS011;34317;51.660;5.824;2024-03-02T12:45:36;1.65;;;0.70;;
48526;SDS011;34317;51.660;5.824;2024-03-02T12:48:04;2.45;;;0.70;;
48526;SDS011;34317;51.660;5.824;2024-03-02T12:50:32;2.85;;;1.17;;
48526;SDS011;34317;51.660;5.824;2024-03-02T12:53:01;5.85;;;1.17;;
48526;SDS011;34317;51.660;5.824;2024-03-02T12:55:29;4.20;;;0.80;;
48526;SDS011;34317;51.660;5.824;2024-03-02T12:57:57;2.25;;;0.50;;
48526;SDS011;34317;51.660;5.824;2024-03-02T13:00:26;3.58;;;0.60;;
48526;SDS011;34317;51.660;5.824;2024-03-02T13:02:54;1.95;;;0.60;;
48526;SDS011;34317;51.660;5.824;2024-03-02T13:07:59;1.70;;;0.60;;
48526;SDS011;34317;51.660;5.824;2024-03-02T13:10:27;1.33;;;0.63;;
48526;SDS011;34317;51.660;5.824;2024-03-02T13:12:55;4.00;;;0.88;;
48526;SDS011;34317;51.660;5.824;2024-03-02T13:15:23;3.55;;;1.10;;
48526;SDS011;34317;51.660;5.824;2024-03-02T13:17:58;1.85;;;0.70;;
48526;SDS011;34317;51.660;5.824;2024-03-02T13:20:33;2.20;;;0.60;;
48526;SDS011;34317;51.660;5.824;2024-03-02T13:23:02;4.43;;;1.00;;
48526;SDS011;34317;51.660;5.824;2024-03-02T13:25:30;3.70;;;0.82;;
48526;SDS011;34317;51.660;5.824;2024-03-02T13:27:59;1.17;;;0.65;;
48526;SDS011;34317;51.660;5.824;2024-03-02T13:30:27;3.97;;;0.77;;
48526;SDS011;34317;51.660;5.824;2024-03-02T13:36:16;1.48;;;0.57;;
48526;SDS011;34317;51.660;5.824;2024-03-02T13:38:44;1.50;;;0.63;;
48526;SDS011;34317;51.660;5.824;2024-03-02T13:41:11;2.85;;;0.50;;
48526;SDS011;34317;51.660;5.824;2024-03-02T13:43:38;1.73;;;0.60;;
48526;SDS011;34317;51.660;5.824;2024-03-02T13:46:06;1.63;;;0.50;;
48526;SDS011;34317;51.660;5.824;2024-03-02T13:48:34;2.63;;;0.60;;
48526;SDS011;34317;51.660;5.824;2024-03-02T13:51:02;2.90;;;0.93;;
48526;SDS011;34317;51.660;5.824;2024-03-02T13:53:31;2.35;;;0.80;;
48526;SDS011;34317;51.660;5.824;2024-03-02T13:55:59;1.88;;;0.70;;
48526;SDS011;34317;51.660;5.824;2024-03-02T13:58:26;1.45;;;0.70;;
48526;SDS011;34317;51.660;5.824;2024-03-02T14:00:55;2.28;;;0.75;;
48526;SDS011;34317;51.660;5.824;2024-03-02T14:03:23;1.55;;;0.60;;
48526;SDS011;34317;51.660;5.824;2024-03-02T14:05:52;2.25;;;0.80;;
48526;SDS011;34317;51.660;5.824;2024-03-02T14:08:19;1.23;;;0.65;;
48526;SDS011;34317;51.660;5.824;2024-03-02T14:10:47;3.17;;;0.60;;
48526;SDS011;34317;51.660;5.824;2024-03-02T14:13:14;3.08;;;0.80;;
48526;SDS011;34317;51.660;5.824;2024-03-02T14:15:42;2.53;;;0.70;;
48526;SDS011;34317;51.660;5.824;2024-03-02T14:18:10;2.05;;;0.80;;
48526;SDS011;34317;51.660;5.824;2024-03-02T14:20:38;1.13;;;0.70;;
48526;SDS011;34317;51.660;5.824;2024-03-02T14:23:05;3.05;;;0.70;;
48526;SDS011;34317;51.660;5.824;2024-03-02T14:25:32;1.05;;;0.70;;
48526;SDS011;34317;51.660;5.824;2024-03-02T14:28:00;1.98;;;0.68;;
48526;SDS011;34317;51.660;5.824;2024-03-02T14:30:48;2.20;;;0.73;;
48526;SDS011;34317;51.660;5.824;2024-03-02T14:33:16;1.75;;;0.73;;
48526;SDS011;34317;51.660;5.824;2024-03-02T14:35:44;2.17;;;0.65;;
48526;SDS011;34317;51.660;5.824;2024-03-02T14:38:12;3.75;;;0.60;;
48526;SDS011;34317;51.660;5.824;2024-03-02T14:40:40;0.77;;;0.60;;
48526;SDS011;34317;51.660;5.824;2024-03-02T14:43:07;2.35;;;0.60;;
48526;SDS011;34317;51.660;5.824;2024-03-02T14:45:34;1.08;;;0.73;;
48526;SDS011;34317;51.660;5.824;2024-03-02T14:48:02;1.10;;;0.70;;
48526;SDS011;34317;51.660;5.824;2024-03-02T14:50:30;2.15;;;0.60;;
48526;SDS011;34317;51.660;5.824;2024-03-02T14:52:57;1.00;;;0.68;;
48526;SDS011;34317;51.660;5.824;2024-03-02T14:55:25;1.50;;;0.70;;
48526;SDS011;34317;51.660;5.824;2024-03-02T14:57:52;1.10;;;0.70;;
48526;SDS011;34317;51.660;5.824;2024-03-02T15:00:20;1.88;;;0.80;;
48526;SDS011;34317;51.660;5.824;2024-03-02T15:02:47;2.33;;;0.80;;
48526;SDS011;34317;51.660;5.824;2024-03-02T15:05:15;2.20;;;0.52;;
48526;SDS011;34317;51.660;5.824;2024-03-02T15:07:44;1.20;;;0.70;;
48526;SDS011;34317;51.660;5.824;2024-03-02T15:10:11;2.97;;;0.90;;
48526;SDS011;34317;51.660;5.824;2024-03-02T15:12:39;2.00;;;0.90;;
48526;SDS011;34317;51.660;5.824;2024-03-02T15:15:08;1.58;;;0.70;;
48526;SDS011;34317;51.660;5.824;2024-03-02T15:17:39;1.27;;;0.65;;
48526;SDS011;34317;51.660;5.824;2024-03-02T15:20:10;1.55;;;0.55;;